CYLD

Chapleau Airport

Chapleau, Ontario, Canada
METAR CYLD 200056Z 24008G16KT 210V290 15SM BKN013 OVC060 M00/M02 A2934 RMK SC6SC2 LWR CLD VRY THIN SLP962
Observed Flight Rules
Jan-20 @ 00:56 UTC (21 minutes ago) Marginal Visual Flight Rules
Wind Visibility Clouds
240° at 8 knots
 Gusting to 16 knots
15 miles
  • Broken at 1,300' AGL
  • Overcast at 6,000' AGL
Temperatures Readings
Current 0°C / 32°F
Dewpoint -2°C / 28°F
Humidity 87%
Altimeter 29.34" Hg
Pressure 996.2 hPa
Elevation 447
METAR CYLD 200056Z 24008G16KT 210V290 15SM BKN013 OVC060 M00/M02 A2934 RMK SC6SC2 LWR CLD VRY THIN SLP962
Observed Flight Rules
Jan-20 @ 00:56 UTC
(21 minutes ago)
MVFR
Wind Visibility
240° at 8 knots
 Gusting to 16 knots
15 miles
Clouds
  • Broken at 1,300' AGL
  • Overcast at 6,000' AGL
Temperature Dewpoint
0°C / 32°F -2°C / 28°F
Humidity Altimeter Pressure
87% 29.34" Hg 996.2 hPa